createdAt,value
2018-11-01T00:01:35.317Z,85.90
2018-11-01T00:04:04.227Z,86.50
2018-11-01T00:06:32.375Z,86.80
2018-11-01T00:09:00.558Z,87.00
2018-11-01T00:11:28.882Z,87.10
2018-11-01T00:13:56.990Z,87.50
2018-11-01T00:16:25.144Z,88.00
2018-11-01T00:18:53.266Z,88.20
2018-11-01T00:21:21.422Z,88.40
2018-11-01T00:23:49.541Z,88.00
2018-11-01T00:26:17.714Z,87.60
2018-11-01T00:28:45.960Z,87.40
2018-11-01T00:31:14.099Z,87.40
2018-11-01T00:33:42.710Z,87.70
2018-11-01T00:36:10.809Z,88.50
2018-11-01T00:38:38.972Z,89.00
2018-11-01T00:41:07.118Z,89.00
2018-11-01T00:43:35.246Z,89.30
2018-11-01T00:46:03.362Z,89.40
2018-11-01T00:48:31.807Z,89.30
2018-11-01T00:50:59.958Z,89.50
2018-11-01T00:53:28.088Z,89.60
2018-11-01T00:55:56.218Z,90.00
2018-11-01T00:58:24.378Z,90.00
2018-11-01T01:00:52.522Z,90.00
2018-11-01T01:03:20.643Z,90.00
2018-11-01T01:05:49.029Z,90.00
2018-11-01T01:08:17.150Z,90.00
2018-11-01T01:10:45.322Z,90.10
2018-11-01T01:13:13.479Z,90.10
2018-11-01T01:15:41.632Z,90.00
2018-11-01T01:18:09.792Z,90.00
2018-11-01T01:20:37.924Z,89.60
2018-11-01T01:23:06.099Z,89.30
2018-11-01T01:25:34.216Z,89.50
2018-11-01T01:28:02.347Z,89.50
2018-11-01T01:30:30.518Z,89.60
2018-11-01T01:32:58.646Z,89.50
2018-11-01T01:35:26.782Z,89.80
2018-11-01T01:37:54.914Z,90.00
2018-11-01T01:40:23.050Z,90.10
2018-11-01T01:42:52.503Z,89.90
2018-11-01T01:45:21.354Z,89.20
2018-11-01T01:47:49.465Z,88.80
2018-11-01T01:50:18.227Z,88.80
2018-11-01T01:52:46.738Z,89.10
2018-11-01T01:55:14.849Z,89.50
2018-11-01T01:57:43.026Z,90.00
2018-11-01T02:00:13.422Z,90.10
2018-11-01T02:02:43.852Z,90.10
2018-11-01T02:05:12.002Z,90.60
2018-11-01T02:07:40.139Z,90.00
2018-11-01T02:10:10.078Z,89.60
2018-11-01T02:12:38.439Z,89.50
2018-11-01T02:15:09.621Z,88.80
2018-11-01T02:17:37.789Z,88.70
2018-11-01T02:20:07.763Z,88.30
2018-11-01T02:22:35.887Z,87.90
2018-11-01T02:25:04.150Z,88.00
2018-11-01T02:27:37.775Z,87.70
2018-11-01T02:30:07.787Z,88.00
2018-11-01T02:32:35.918Z,87.60
2018-11-01T02:35:04.099Z,88.60
2018-11-01T02:37:32.267Z,88.50
2018-11-01T02:40:00.431Z,89.00
2018-11-01T02:42:28.594Z,89.10
2018-11-01T02:44:56.721Z,89.30
2018-11-01T02:47:24.863Z,89.30
2018-11-01T02:49:53.021Z,89.30
2018-11-01T02:52:21.358Z,89.40
2018-11-01T02:54:49.506Z,90.00
2018-11-01T02:57:17.637Z,89.40
2018-11-01T02:59:45.981Z,89.20
2018-11-01T03:02:14.045Z,89.00
2018-11-01T03:04:42.212Z,88.80
2018-11-01T03:07:10.383Z,88.70
2018-11-01T03:09:38.558Z,88.40
2018-11-01T03:12:07.371Z,87.80
2018-11-01T03:14:35.494Z,87.80
2018-11-01T03:17:04.123Z,88.00
2018-11-01T03:19:32.214Z,88.00
2018-11-01T03:22:00.374Z,88.00
2018-11-01T03:24:28.962Z,87.90
2018-11-01T03:26:57.086Z,86.90
2018-11-01T03:29:25.210Z,86.50
2018-11-01T03:31:53.392Z,86.70
2018-11-01T03:34:21.495Z,86.50
2018-11-01T03:36:49.666Z,86.40
2018-11-01T03:39:17.838Z,86.30
2018-11-01T03:41:45.991Z,86.20
2018-11-01T03:44:14.139Z,86.00
2018-11-01T03:46:42.625Z,86.10
2018-11-01T03:49:10.783Z,86.10
2018-11-01T03:51:38.925Z,86.50
2018-11-01T03:54:07.342Z,87.70
2018-11-01T03:56:35.523Z,88.40
2018-11-01T03:59:03.730Z,89.10
2018-11-01T04:01:31.959Z,89.70
2018-11-01T04:04:00.140Z,90.00
2018-11-01T04:06:28.287Z,90.20
2018-11-01T04:08:56.428Z,90.30
2018-11-01T04:11:24.614Z,90.60
2018-11-01T04:13:53.130Z,90.50
2018-11-01T04:16:21.570Z,90.10
2018-11-01T04:18:49.706Z,89.50
2018-11-01T04:21:17.835Z,88.50
2018-11-01T04:23:46.087Z,87.90
2018-11-01T04:26:14.230Z,87.60
2018-11-01T04:28:42.454Z,87.10
2018-11-01T04:31:10.539Z,87.10
2018-11-01T04:33:38.839Z,87.00
2018-11-01T04:36:06.888Z,87.20
2018-11-01T04:38:34.989Z,87.60
2018-11-01T04:41:03.142Z,88.30
2018-11-01T04:43:31.295Z,89.30
2018-11-01T04:45:59.478Z,89.90
2018-11-01T04:48:27.590Z,90.10
2018-11-01T04:50:55.726Z,90.30
2018-11-01T04:53:23.914Z,90.60
2018-11-01T04:55:52.066Z,90.80
2018-11-01T04:58:20.187Z,91.00
2018-11-01T05:00:48.334Z,90.50
2018-11-01T05:03:16.520Z,90.50
2018-11-01T05:05:44.664Z,90.40
2018-11-01T05:08:12.862Z,90.40
2018-11-01T05:10:41.038Z,90.50
2018-11-01T05:13:09.223Z,90.50
2018-11-01T05:15:37.457Z,90.60
2018-11-01T05:18:05.785Z,90.70
2018-11-01T05:20:33.950Z,90.70
2018-11-01T05:23:02.111Z,91.00
2018-11-01T05:25:30.276Z,91.30
2018-11-01T05:27:58.437Z,91.40
2018-11-01T05:30:26.622Z,91.50
2018-11-01T05:32:54.766Z,91.40
2018-11-01T05:35:22.906Z,91.20
2018-11-01T05:37:51.156Z,91.10
2018-11-01T05:40:19.279Z,90.90
2018-11-01T05:42:47.442Z,90.80
2018-11-01T05:45:15.630Z,90.70
2018-11-01T05:47:43.802Z,90.90
2018-11-01T05:50:11.977Z,90.90
2018-11-01T05:52:40.106Z,90.90
2018-11-01T05:55:08.746Z,90.80
2018-11-01T05:57:37.042Z,90.80
2018-11-01T06:00:08.201Z,90.70
2018-11-01T06:02:38.521Z,90.70
2018-11-01T06:05:08.096Z,90.70
2018-11-01T06:07:39.378Z,90.60
2018-11-01T06:10:08.226Z,90.50
2018-11-01T06:12:36.870Z,90.40
2018-11-01T06:15:06.326Z,90.40
2018-11-01T06:17:34.454Z,90.30
2018-11-01T06:20:02.634Z,90.20
2018-11-01T06:22:30.749Z,90.10
2018-11-01T06:24:58.885Z,90.10
2018-11-01T06:27:27.074Z,90.40
2018-11-01T06:29:55.205Z,90.20
2018-11-01T06:32:23.387Z,90.20
2018-11-01T06:34:54.192Z,90.10
2018-11-01T06:37:22.332Z,90.10
2018-11-01T06:39:50.508Z,90.20
2018-11-01T06:42:18.682Z,90.10
2018-11-01T06:44:46.887Z,90.10
2018-11-01T06:47:15.010Z,90.10
2018-11-01T06:49:43.178Z,90.10
2018-11-01T06:52:11.347Z,90.10
2018-11-01T06:54:39.506Z,90.10
2018-11-01T06:57:07.693Z,90.00
2018-11-01T06:59:35.892Z,90.00
2018-11-01T07:02:04.034Z,89.80
2018-11-01T07:04:32.222Z,90.00
2018-11-01T07:07:00.391Z,90.00
2018-11-01T07:09:28.523Z,90.00
2018-11-01T07:11:56.678Z,89.90
2018-11-01T07:14:24.868Z,89.60
2018-11-01T07:16:53.131Z,89.30
2018-11-01T07:19:21.272Z,88.90
2018-11-01T07:21:49.406Z,88.70
2018-11-01T07:24:17.783Z,88.60
2018-11-01T07:26:45.984Z,88.50
2018-11-01T07:29:14.139Z,88.40
2018-11-01T07:31:42.332Z,88.60
2018-11-01T07:34:10.505Z,88.40
2018-11-01T07:36:38.652Z,88.10
2018-11-01T07:39:08.258Z,88.00
2018-11-01T07:41:37.118Z,87.30
2018-11-01T07:44:05.391Z,87.30
2018-11-01T07:46:33.546Z,87.20
2018-11-01T07:49:01.742Z,87.50
2018-11-01T07:51:29.881Z,87.30
2018-11-01T07:53:58.342Z,86.90
2018-11-01T07:56:26.486Z,87.20
2018-11-01T07:58:54.616Z,87.20
2018-11-01T08:01:22.795Z,87.20
2018-11-01T08:03:50.934Z,87.50
2018-11-01T08:06:19.139Z,87.60
2018-11-01T08:08:47.678Z,87.70
2018-11-01T08:11:15.835Z,87.30
2018-11-01T08:13:43.968Z,87.00
2018-11-01T08:16:12.144Z,86.70
2018-11-01T08:18:40.268Z,86.50
2018-11-01T08:21:08.935Z,86.00
2018-11-01T08:23:36.911Z,85.70
2018-11-01T08:26:05.069Z,85.90
2018-11-01T08:28:33.214Z,85.90
2018-11-01T08:31:01.362Z,85.70
2018-11-01T08:33:29.538Z,85.40
2018-11-01T08:35:57.692Z,85.20
2018-11-01T08:38:25.818Z,85.10
2018-11-01T08:40:54.203Z,84.70
2018-11-01T08:43:22.326Z,84.90
2018-11-01T08:45:50.458Z,84.40
2018-11-01T08:48:18.649Z,84.30
2018-11-01T08:50:46.810Z,84.30
2018-11-01T08:53:14.977Z,84.20
2018-11-01T08:55:43.135Z,84.10
2018-11-01T08:58:11.251Z,84.50
2018-11-01T09:00:39.427Z,85.80
2018-11-01T09:03:07.557Z,85.10
2018-11-01T09:05:35.710Z,85.10
2018-11-01T09:08:03.956Z,85.20
2018-11-01T09:10:32.370Z,86.00
2018-11-01T09:13:00.611Z,85.30
2018-11-01T09:15:28.826Z,85.20
2018-11-01T09:17:57.254Z,85.20
2018-11-01T09:20:25.431Z,84.90
2018-11-01T09:22:53.622Z,84.50
2018-11-01T09:25:21.769Z,84.60
2018-11-01T09:27:49.935Z,84.40
2018-11-01T09:30:18.074Z,84.20
2018-11-01T09:32:46.250Z,83.90
2018-11-01T09:35:14.369Z,83.30
2018-11-01T09:37:43.005Z,83.40
2018-11-01T09:40:12.634Z,83.40
2018-11-01T09:42:40.974Z,82.90
2018-11-01T09:45:09.270Z,82.70
2018-11-01T09:47:37.845Z,82.70
2018-11-01T09:50:07.448Z,82.70
2018-11-01T09:52:35.883Z,82.80
2018-11-01T09:55:04.287Z,82.80
2018-11-01T09:57:32.445Z,82.20
2018-11-01T10:00:00.966Z,82.10
2018-11-01T10:02:29.161Z,82.50
2018-11-01T10:04:57.455Z,82.50
2018-11-01T10:07:25.595Z,82.70
2018-11-01T10:09:53.887Z,82.70
2018-11-01T10:12:22.208Z,82.80
2018-11-01T10:14:50.374Z,82.70
2018-11-01T10:17:18.964Z,82.10
2018-11-01T10:19:46.709Z,81.90
2018-11-01T10:22:14.921Z,81.50
2018-11-01T10:24:43.138Z,81.50
2018-11-01T10:27:19.517Z,81.00
2018-11-01T10:29:40.152Z,81.20
2018-11-01T10:32:09.745Z,80.90
2018-11-01T10:34:39.097Z,80.60
2018-11-01T10:37:07.262Z,80.70
2018-11-01T10:39:35.439Z,80.60
2018-11-01T10:42:03.599Z,79.90
2018-11-01T10:44:31.776Z,79.60
2018-11-01T10:46:59.945Z,79.70
2018-11-01T10:49:28.130Z,79.30
2018-11-01T10:51:56.274Z,78.90
2018-11-01T10:54:24.557Z,78.60
2018-11-01T10:56:52.634Z,78.70
2018-11-01T10:59:20.799Z,78.60
2018-11-01T11:02:52.771Z,78.40
2018-11-01T11:05:22.037Z,77.80
2018-11-01T11:07:50.370Z,77.60
2018-11-01T11:10:18.982Z,77.50
2018-11-01T11:12:48.010Z,77.90
2018-11-01T11:15:16.186Z,77.40
2018-11-01T11:17:44.790Z,77.30
2018-11-01T11:20:13.641Z,76.90
2018-11-01T11:22:41.795Z,77.10
2018-11-01T11:25:11.310Z,77.00
2018-11-01T11:27:39.846Z,77.30
2018-11-01T11:30:09.561Z,77.20
2018-11-01T11:32:37.875Z,77.40
2018-11-01T11:35:06.279Z,77.30
2018-11-01T11:37:34.634Z,77.50
2018-11-01T11:40:02.888Z,77.30
2018-11-01T11:42:31.027Z,77.00
2018-11-01T11:44:59.281Z,76.80
2018-11-01T11:47:27.795Z,76.70
2018-11-01T11:49:56.101Z,76.20
2018-11-01T11:52:24.243Z,76.10
2018-11-01T11:54:52.389Z,76.20
2018-11-01T11:57:20.574Z,75.70
2018-11-01T11:59:48.750Z,75.10
2018-11-01T12:02:16.995Z,75.30
2018-11-01T12:04:45.385Z,75.10
2018-11-01T12:07:13.792Z,75.00
2018-11-01T12:09:42.036Z,75.20
2018-11-01T12:12:10.224Z,75.10
2018-11-01T12:14:38.442Z,75.40
2018-11-01T12:17:06.667Z,75.50
2018-11-01T12:19:34.930Z,75.60
2018-11-01T12:22:03.311Z,75.80
2018-11-01T12:24:31.816Z,75.50
2018-11-01T12:27:00.023Z,75.80
2018-11-01T12:29:28.185Z,75.70
2018-11-01T12:31:56.633Z,75.70
2018-11-01T12:34:24.934Z,75.60
2018-11-01T12:36:53.418Z,76.30
2018-11-01T12:39:21.619Z,75.10
2018-11-01T12:41:49.830Z,74.60
2018-11-01T12:44:18.018Z,75.10
2018-11-01T12:46:46.223Z,74.60
2018-11-01T12:49:14.623Z,74.00
2018-11-01T12:51:42.903Z,74.20
2018-11-01T12:54:11.155Z,74.10
2018-11-01T12:56:39.346Z,74.60
2018-11-01T12:59:08.203Z,75.40
2018-11-01T13:01:36.392Z,74.80
2018-11-01T13:04:04.665Z,75.30
2018-11-01T13:06:32.818Z,75.40
2018-11-01T13:09:00.970Z,75.80
2018-11-01T13:11:29.485Z,75.50
2018-11-01T13:13:57.689Z,75.40
2018-11-01T13:16:25.844Z,75.50
2018-11-01T13:18:54.025Z,76.00
2018-11-01T13:21:22.194Z,75.80
2018-11-01T13:23:50.373Z,76.80
2018-11-01T13:26:18.581Z,76.80
2018-11-01T13:28:46.734Z,77.20
2018-11-01T13:31:15.362Z,77.90
2018-11-01T13:33:43.571Z,78.60
2018-11-01T13:36:11.775Z,78.90
2018-11-01T13:38:40.023Z,79.90
2018-11-01T13:41:08.593Z,79.60
2018-11-01T13:43:36.407Z,80.40
2018-11-01T13:46:04.902Z,81.00
2018-11-01T13:48:33.166Z,80.90
2018-11-01T13:51:01.310Z,81.20
2018-11-01T13:53:29.517Z,81.70
2018-11-01T13:55:57.714Z,82.00
2018-11-01T13:58:25.926Z,82.30
2018-11-01T14:00:54.226Z,82.70
2018-11-01T14:03:22.430Z,83.00
2018-11-01T14:05:50.712Z,83.60
2018-11-01T14:08:18.904Z,83.50
2018-11-01T14:10:47.070Z,83.80
2018-11-01T14:13:15.376Z,84.00
2018-11-01T14:15:43.523Z,84.90
2018-11-01T14:18:11.610Z,85.30
2018-11-01T14:20:39.794Z,86.00
2018-11-01T14:23:07.956Z,86.60
2018-11-01T14:25:36.198Z,86.90
2018-11-01T14:28:04.566Z,86.90
2018-11-01T14:30:32.758Z,87.50
2018-11-01T14:33:00.956Z,88.00
2018-11-01T14:35:29.157Z,88.60
2018-11-01T14:37:57.412Z,88.80
2018-11-01T14:40:25.507Z,89.30
2018-11-01T14:42:53.731Z,89.10
2018-11-01T14:45:21.898Z,89.40
2018-11-01T14:47:50.061Z,89.80
2018-11-01T14:50:18.302Z,90.20
2018-11-01T14:52:47.119Z,90.10
2018-11-01T14:55:15.785Z,90.10
2018-11-01T14:57:44.216Z,90.20
2018-11-01T15:00:11.387Z,90.10
2018-11-01T15:02:39.558Z,90.10
2018-11-01T15:05:08.362Z,90.40
2018-11-01T15:07:36.552Z,90.60
2018-11-01T15:10:06.007Z,90.50
2018-11-01T15:12:34.165Z,90.80
2018-11-01T15:15:02.407Z,90.80
2018-11-01T15:17:30.605Z,91.00
2018-11-01T15:19:58.804Z,91.10
2018-11-01T15:22:26.968Z,91.50
2018-11-01T15:24:55.159Z,91.60
2018-11-01T15:27:23.319Z,91.80
2018-11-01T15:29:51.574Z,91.90
2018-11-01T15:32:25.199Z,91.80
2018-11-01T15:34:53.423Z,91.60
2018-11-01T15:37:21.790Z,91.80
2018-11-01T15:39:49.961Z,91.90
2018-11-01T15:42:18.163Z,91.90
2018-11-01T15:44:46.961Z,92.00
2018-11-01T15:47:15.115Z,92.10
2018-11-01T15:49:43.334Z,92.00
2018-11-01T15:52:11.654Z,92.10
2018-11-01T15:54:39.895Z,92.10
2018-11-01T15:57:08.042Z,92.20
2018-11-01T15:59:36.295Z,92.20
2018-11-01T16:02:04.730Z,92.20
2018-11-01T16:04:32.825Z,92.30
2018-11-01T16:07:00.982Z,92.40
2018-11-01T16:09:29.141Z,92.40
2018-11-01T16:11:57.310Z,92.40
2018-11-01T16:14:25.572Z,92.40
2018-11-01T16:16:53.713Z,92.50
2018-11-01T16:19:21.856Z,92.60
2018-11-01T16:21:49.998Z,92.80
2018-11-01T16:24:18.154Z,92.70
2018-11-01T16:26:46.285Z,92.60
2018-11-01T16:29:14.547Z,92.60
2018-11-01T16:31:42.713Z,92.60
2018-11-01T16:34:10.892Z,92.70
2018-11-01T16:36:39.244Z,92.90
2018-11-01T16:39:09.976Z,93.10
2018-11-01T16:41:38.264Z,93.30
2018-11-01T16:44:06.426Z,93.50
2018-11-01T16:46:34.571Z,93.50
2018-11-01T16:49:03.086Z,93.50
2018-11-01T16:51:31.236Z,93.60
2018-11-01T16:54:00.436Z,93.70
2018-11-01T16:56:29.640Z,93.90
2018-11-01T16:58:59.128Z,93.80
2018-11-01T17:01:27.998Z,93.80
2018-11-01T17:03:56.988Z,94.00
2018-11-01T17:06:26.186Z,94.00
2018-11-01T17:08:55.349Z,94.10
2018-11-01T17:11:24.372Z,94.20
2018-11-01T17:13:52.578Z,94.20
2018-11-01T17:16:20.714Z,94.30
2018-11-01T17:18:49.190Z,94.20
2018-11-01T17:21:17.356Z,94.10
2018-11-01T17:23:45.522Z,94.00
2018-11-01T17:26:13.694Z,94.00
2018-11-01T17:28:41.849Z,94.00
2018-11-01T17:31:10.018Z,94.00
2018-11-01T17:33:38.180Z,93.80
2018-11-01T17:36:06.390Z,93.90
2018-11-01T17:38:34.947Z,93.90
2018-11-01T17:41:03.139Z,94.00
2018-11-01T17:43:31.336Z,93.90
2018-11-01T17:45:59.544Z,94.00
2018-11-01T17:48:27.667Z,94.00
2018-11-01T17:50:55.845Z,94.30
2018-11-01T17:53:23.987Z,94.40
2018-11-01T17:55:52.150Z,94.20
2018-11-01T17:58:20.341Z,94.30
2018-11-01T18:00:48.547Z,94.30
2018-11-01T18:03:16.681Z,94.30
2018-11-01T18:05:44.882Z,94.20
2018-11-01T18:08:13.072Z,94.20
2018-11-01T18:10:41.186Z,94.30
2018-11-01T18:13:09.390Z,94.20
2018-11-01T18:15:37.529Z,94.40
2018-11-01T18:18:05.657Z,94.30
2018-11-01T18:20:33.854Z,94.50
2018-11-01T18:23:02.044Z,94.50
2018-11-01T18:25:30.217Z,94.50
2018-11-01T18:27:58.302Z,94.40
2018-11-01T18:30:26.499Z,94.40
2018-11-01T18:32:54.837Z,94.30
2018-11-01T18:35:22.810Z,94.40
2018-11-01T18:37:51.037Z,94.30
2018-11-01T18:40:19.207Z,94.40
2018-11-01T18:42:47.344Z,94.40
2018-11-01T18:45:15.880Z,94.60
2018-11-01T18:47:44.434Z,94.30
2018-11-01T18:50:14.080Z,94.30
2018-11-01T18:52:42.304Z,94.30
2018-11-01T18:55:11.532Z,94.20
2018-11-01T18:57:39.707Z,94.20
2018-11-01T19:00:10.049Z,94.10
2018-11-01T19:02:38.292Z,93.90
2018-11-01T19:05:08.097Z,93.90
2018-11-01T19:07:36.292Z,93.80
2018-11-01T19:10:04.656Z,93.70
2018-11-01T19:12:33.171Z,93.60
2018-11-01T19:15:01.309Z,93.50
2018-11-01T19:17:29.458Z,93.50
2018-11-01T19:19:57.626Z,93.50
2018-11-01T19:22:25.836Z,93.50
2018-11-01T19:24:54.004Z,93.50
2018-11-01T19:27:22.473Z,93.30
2018-11-01T19:29:50.345Z,93.40
2018-11-01T19:32:18.510Z,93.40
2018-11-01T19:34:46.674Z,93.40
2018-11-01T19:37:14.860Z,93.40
2018-11-01T19:39:42.997Z,93.30
2018-11-01T19:42:11.588Z,93.20
2018-11-01T19:44:39.899Z,93.10
2018-11-01T19:47:08.079Z,93.00
2018-11-01T19:49:36.582Z,92.90
2018-11-01T19:52:05.006Z,92.80
2018-11-01T19:54:33.218Z,92.80
2018-11-01T19:57:01.323Z,92.80
2018-11-01T19:59:29.543Z,92.90
2018-11-01T20:01:57.727Z,92.70
2018-11-01T20:04:25.965Z,92.70
2018-11-01T20:06:54.070Z,92.80
2018-11-01T20:09:22.248Z,92.80
2018-11-01T20:11:50.402Z,92.80
2018-11-01T20:14:18.571Z,92.80
2018-11-01T20:16:46.752Z,92.80
2018-11-01T20:19:15.072Z,92.90
2018-11-01T20:21:43.158Z,92.90
2018-11-01T20:24:11.232Z,92.90
2018-11-01T20:26:39.375Z,92.90
2018-11-01T20:29:07.766Z,92.90
2018-11-01T20:31:36.315Z,92.90
2018-11-01T20:34:04.907Z,92.80
2018-11-01T20:36:33.081Z,92.80
2018-11-01T20:39:01.292Z,92.70
2018-11-01T20:41:29.450Z,92.70
2018-11-01T20:43:57.706Z,92.70
2018-11-01T20:46:25.903Z,92.70
2018-11-01T20:48:54.045Z,92.70
2018-11-01T20:51:22.516Z,92.60
2018-11-01T20:53:50.625Z,92.50
2018-11-01T20:56:18.774Z,92.50
2018-11-01T20:58:46.962Z,92.40
2018-11-01T21:01:15.113Z,92.40
2018-11-01T21:03:43.252Z,92.70
2018-11-01T21:06:12.391Z,92.30
2018-11-01T21:08:40.809Z,92.20
2018-11-01T21:11:09.179Z,92.20
2018-11-01T21:13:37.218Z,92.10
2018-11-01T21:16:05.870Z,92.00
2018-11-01T21:18:34.038Z,92.10
2018-11-01T21:21:02.204Z,92.20
2018-11-01T21:23:30.382Z,92.10
2018-11-01T21:25:58.533Z,92.20
2018-11-01T21:28:26.726Z,92.20
2018-11-01T21:30:54.882Z,92.20
2018-11-01T21:33:23.177Z,92.40
2018-11-01T21:35:51.485Z,92.10
2018-11-01T21:38:19.563Z,92.30
2018-11-01T21:40:47.715Z,92.30
2018-11-01T21:43:15.970Z,92.20
2018-11-01T21:45:44.578Z,92.10
2018-11-01T21:48:12.738Z,91.90
2018-11-01T21:50:40.870Z,91.90
2018-11-01T21:53:09.574Z,91.70
2018-11-01T21:55:37.546Z,91.60
2018-11-01T21:58:06.049Z,91.50
2018-11-01T22:00:34.234Z,91.40
2018-11-01T22:03:02.816Z,91.30
2018-11-01T22:05:30.975Z,91.40
2018-11-01T22:07:59.197Z,91.60
2018-11-01T22:10:27.351Z,91.70
2018-11-01T22:12:55.618Z,91.70
2018-11-01T22:15:23.853Z,91.80
2018-11-01T22:17:52.014Z,92.00
2018-11-01T22:20:20.158Z,92.00
2018-11-01T22:22:48.338Z,92.20
2018-11-01T22:25:16.491Z,92.30
2018-11-01T22:27:44.674Z,92.60
2018-11-01T22:30:12.878Z,92.40
2018-11-01T22:32:42.027Z,92.40
2018-11-01T22:35:10.378Z,92.50
2018-11-01T22:37:39.217Z,92.50
2018-11-01T22:40:07.535Z,92.70
2018-11-01T22:42:35.724Z,92.70
2018-11-01T22:45:04.189Z,92.60
2018-11-01T22:47:32.357Z,92.50
2018-11-01T22:50:00.663Z,92.40
2018-11-01T22:52:28.929Z,92.50
2018-11-01T22:54:57.098Z,92.50
2018-11-01T22:57:25.354Z,92.40
2018-11-01T22:59:53.587Z,92.40
2018-11-01T23:02:21.665Z,92.50
2018-11-01T23:04:49.854Z,92.50
2018-11-01T23:07:18.035Z,92.50
2018-11-01T23:09:46.207Z,92.60
2018-11-01T23:12:14.371Z,92.70
2018-11-01T23:14:42.534Z,92.70
2018-11-01T23:17:10.818Z,92.70
2018-11-01T23:19:39.040Z,93.00
2018-11-01T23:22:07.191Z,92.80
2018-11-01T23:24:35.358Z,92.70
2018-11-01T23:27:03.796Z,92.60
2018-11-01T23:29:31.986Z,92.70
2018-11-01T23:32:00.116Z,92.60
2018-11-01T23:34:28.310Z,92.50
2018-11-01T23:37:01.838Z,92.50
2018-11-01T23:39:35.549Z,92.60
2018-11-01T23:42:09.002Z,92.60
2018-11-01T23:44:42.998Z,92.60
2018-11-01T23:47:16.550Z,92.50
2018-11-01T23:49:46.787Z,92.50
2018-11-01T23:52:19.550Z,92.40
2018-11-01T23:54:47.782Z,92.60
2018-11-01T23:57:16.032Z,92.80
2018-11-01T23:59:44.187Z,92.70
